Dominion City, Canada
Current Conditions -  °F | °C
As of 4:13 AM on Friday 31 Oct 2014 (Local Time) from KHCO Reporting Station
Clear Clear  
Wind Chill: 16°   Ceiling: Unl
Heat Index: 16°   Visibility: 10mi
Dew Point: 12°   Wind: 0mph
Humidity: 86%   Direction: NA
Pressure: 30.6"   Gusts: NA
Location:  49.13°N, 97.15°W
Report Text: KHCO 310913Z AUTO 00000KT 10SM CLR M09/M11 A3060 RMK AO2
Loading
Personal Weather Stations






























Interactive Weather Map
Tropical Storm Tracking
New forecast layout! Learn more

10-Day Weather Forecast

Advertisements
Track Severe Weather on mobile